sensor_id;sensor_type;location;lat;lon;timestamp;P1;durP1;ratioP1;P2;durP2;ratioP2
53269;SDS011;39159;45.634;9.420;2023-07-29T00:01:51;6.75;;;4.07;;
53269;SDS011;39159;45.634;9.420;2023-07-29T00:04:17;8.38;;;4.68;;
53269;SDS011;39159;45.634;9.420;2023-07-29T00:06:42;8.57;;;3.88;;
53269;SDS011;39159;45.634;9.420;2023-07-29T00:09:07;6.93;;;4.20;;
53269;SDS011;39159;45.634;9.420;2023-07-29T00:11:33;6.07;;;3.97;;
53269;SDS011;39159;45.634;9.420;2023-07-29T00:14:01;6.53;;;4.00;;
53269;SDS011;39159;45.634;9.420;2023-07-29T00:16:27;6.85;;;4.00;;
53269;SDS011;39159;45.634;9.420;2023-07-29T00:18:53;6.78;;;4.72;;
53269;SDS011;39159;45.634;9.420;2023-07-29T00:21:18;6.20;;;4.25;;
53269;SDS011;39159;45.634;9.420;2023-07-29T00:23:44;7.65;;;4.75;;
53269;SDS011;39159;45.634;9.420;2023-07-29T00:26:10;5.95;;;4.38;;
53269;SDS011;39159;45.634;9.420;2023-07-29T00:28:35;8.90;;;4.50;;
53269;SDS011;39159;45.634;9.420;2023-07-29T00:31:01;9.90;;;5.10;;
53269;SDS011;39159;45.634;9.420;2023-07-29T00:33:27;6.97;;;4.47;;
53269;SDS011;39159;45.634;9.420;2023-07-29T00:35:52;6.32;;;4.75;;
53269;SDS011;39159;45.634;9.420;2023-07-29T00:38:18;7.55;;;4.90;;
53269;SDS011;39159;45.634;9.420;2023-07-29T00:40:43;7.38;;;4.70;;
53269;SDS011;39159;45.634;9.420;2023-07-29T00:43:09;6.47;;;4.47;;
53269;SDS011;39159;45.634;9.420;2023-07-29T00:45:34;8.55;;;5.28;;
53269;SDS011;39159;45.634;9.420;2023-07-29T00:48:00;8.27;;;5.13;;
53269;SDS011;39159;45.634;9.420;2023-07-29T00:50:27;9.25;;;5.65;;
53269;SDS011;39159;45.634;9.420;2023-07-29T00:52:54;8.57;;;5.65;;
53269;SDS011;39159;45.634;9.420;2023-07-29T00:55:20;8.85;;;5.78;;
53269;SDS011;39159;45.634;9.420;2023-07-29T00:57:45;10.35;;;5.72;;
53269;SDS011;39159;45.634;9.420;2023-07-29T01:00:13;9.80;;;5.78;;
53269;SDS011;39159;45.634;9.420;2023-07-29T01:02:40;11.27;;;5.65;;
53269;SDS011;39159;45.634;9.420;2023-07-29T01:05:06;9.23;;;5.40;;
53269;SDS011;39159;45.634;9.420;2023-07-29T01:07:47;10.88;;;5.90;;
53269;SDS011;39159;45.634;9.420;2023-07-29T01:10:23;9.85;;;5.40;;
53269;SDS011;39159;45.634;9.420;2023-07-29T01:13:10;8.60;;;5.40;;
53269;SDS011;39159;45.634;9.420;2023-07-29T01:15:46;10.90;;;5.45;;
53269;SDS011;39159;45.634;9.420;2023-07-29T01:18:28;8.23;;;5.13;;
53269;SDS011;39159;45.634;9.420;2023-07-29T01:21:00;12.65;;;5.93;;
53269;SDS011;39159;45.634;9.420;2023-07-29T01:23:29;8.20;;;5.65;;
53269;SDS011;39159;45.634;9.420;2023-07-29T01:25:56;8.50;;;5.93;;
53269;SDS011;39159;45.634;9.420;2023-07-29T01:28:21;8.77;;;5.88;;
53269;SDS011;39159;45.634;9.420;2023-07-29T01:30:48;13.38;;;5.75;;
53269;SDS011;39159;45.634;9.420;2023-07-29T01:33:18;7.22;;;5.10;;
53269;SDS011;39159;45.634;9.420;2023-07-29T01:38:48;9.48;;;5.68;;
53269;SDS011;39159;45.634;9.420;2023-07-29T01:41:16;9.07;;;5.28;;
53269;SDS011;39159;45.634;9.420;2023-07-29T01:43:43;8.18;;;5.50;;
53269;SDS011;39159;45.634;9.420;2023-07-29T01:46:10;8.73;;;5.20;;
53269;SDS011;39159;45.634;9.420;2023-07-29T01:48:36;10.45;;;5.22;;
53269;SDS011;39159;45.634;9.420;2023-07-29T01:51:02;9.50;;;5.28;;
53269;SDS011;39159;45.634;9.420;2023-07-29T01:53:28;11.52;;;5.97;;
53269;SDS011;39159;45.634;9.420;2023-07-29T01:55:53;7.80;;;5.30;;
53269;SDS011;39159;45.634;9.420;2023-07-29T01:58:19;11.07;;;5.78;;
53269;SDS011;39159;45.634;9.420;2023-07-29T02:00:44;6.90;;;5.13;;
53269;SDS011;39159;45.634;9.420;2023-07-29T02:03:10;11.63;;;5.80;;
53269;SDS011;39159;45.634;9.420;2023-07-29T02:05:35;7.00;;;5.22;;
53269;SDS011;39159;45.634;9.420;2023-07-29T02:08:01;7.97;;;5.20;;
53269;SDS011;39159;45.634;9.420;2023-07-29T02:10:26;7.75;;;5.85;;
53269;SDS011;39159;45.634;9.420;2023-07-29T02:12:51;9.30;;;6.10;;
53269;SDS011;39159;45.634;9.420;2023-07-29T02:15:17;7.72;;;5.88;;
53269;SDS011;39159;45.634;9.420;2023-07-29T02:17:42;8.07;;;5.80;;
53269;SDS011;39159;45.634;9.420;2023-07-29T02:20:08;8.30;;;5.35;;
53269;SDS011;39159;45.634;9.420;2023-07-29T02:22:35;8.32;;;5.28;;
53269;SDS011;39159;45.634;9.420;2023-07-29T02:25:01;9.00;;;5.15;;
53269;SDS011;39159;45.634;9.420;2023-07-29T02:27:27;8.38;;;5.43;;
53269;SDS011;39159;45.634;9.420;2023-07-29T02:29:53;14.18;;;5.32;;
53269;SDS011;39159;45.634;9.420;2023-07-29T02:32:19;8.18;;;5.90;;
53269;SDS011;39159;45.634;9.420;2023-07-29T02:34:44;9.48;;;5.55;;
53269;SDS011;39159;45.634;9.420;2023-07-29T02:37:10;8.52;;;5.13;;
53269;SDS011;39159;45.634;9.420;2023-07-29T02:39:36;8.82;;;5.28;;
53269;SDS011;39159;45.634;9.420;2023-07-29T02:42:02;10.85;;;5.95;;
53269;SDS011;39159;45.634;9.420;2023-07-29T02:44:27;10.63;;;5.43;;
53269;SDS011;39159;45.634;9.420;2023-07-29T02:46:53;6.07;;;4.90;;
53269;SDS011;39159;45.634;9.420;2023-07-29T02:49:20;11.52;;;6.03;;
53269;SDS011;39159;45.634;9.420;2023-07-29T02:51:46;9.65;;;5.60;;
53269;SDS011;39159;45.634;9.420;2023-07-29T02:54:11;12.45;;;6.15;;
53269;SDS011;39159;45.634;9.420;2023-07-29T02:56:37;9.55;;;5.57;;
53269;SDS011;39159;45.634;9.420;2023-07-29T02:59:02;8.48;;;6.25;;
53269;SDS011;39159;45.634;9.420;2023-07-29T03:01:28;9.57;;;6.22;;
53269;SDS011;39159;45.634;9.420;2023-07-29T03:03:53;8.23;;;5.45;;
53269;SDS011;39159;45.634;9.420;2023-07-29T03:06:19;7.28;;;6.18;;
53269;SDS011;39159;45.634;9.420;2023-07-29T03:08:44;9.48;;;5.72;;
53269;SDS011;39159;45.634;9.420;2023-07-29T03:11:10;8.35;;;4.80;;
53269;SDS011;39159;45.634;9.420;2023-07-29T03:13:39;13.02;;;5.72;;
53269;SDS011;39159;45.634;9.420;2023-07-29T03:16:05;9.20;;;5.30;;
53269;SDS011;39159;45.634;9.420;2023-07-29T03:18:31;9.50;;;5.30;;
53269;SDS011;39159;45.634;9.420;2023-07-29T03:20:57;7.55;;;4.78;;
53269;SDS011;39159;45.634;9.420;2023-07-29T03:23:22;6.72;;;4.63;;
53269;SDS011;39159;45.634;9.420;2023-07-29T03:25:48;7.30;;;4.80;;
53269;SDS011;39159;45.634;9.420;2023-07-29T03:28:16;10.98;;;5.57;;
53269;SDS011;39159;45.634;9.420;2023-07-29T03:30:42;8.43;;;4.95;;
53269;SDS011;39159;45.634;9.420;2023-07-29T03:33:07;9.80;;;4.82;;
53269;SDS011;39159;45.634;9.420;2023-07-29T03:35:32;7.10;;;4.63;;
53269;SDS011;39159;45.634;9.420;2023-07-29T03:37:58;8.95;;;4.78;;
53269;SDS011;39159;45.634;9.420;2023-07-29T03:40:23;7.80;;;4.97;;
53269;SDS011;39159;45.634;9.420;2023-07-29T03:42:49;8.55;;;4.88;;
53269;SDS011;39159;45.634;9.420;2023-07-29T03:45:14;6.18;;;4.65;;
53269;SDS011;39159;45.634;9.420;2023-07-29T03:47:40;6.97;;;4.65;;
53269;SDS011;39159;45.634;9.420;2023-07-29T03:50:05;5.97;;;5.18;;
53269;SDS011;39159;45.634;9.420;2023-07-29T03:52:31;7.25;;;4.38;;
53269;SDS011;39159;45.634;9.420;2023-07-29T03:54:56;10.30;;;4.97;;
53269;SDS011;39159;45.634;9.420;2023-07-29T03:57:22;8.02;;;5.03;;
53269;SDS011;39159;45.634;9.420;2023-07-29T03:59:47;8.30;;;4.88;;
53269;SDS011;39159;45.634;9.420;2023-07-29T04:02:13;7.15;;;4.70;;
53269;SDS011;39159;45.634;9.420;2023-07-29T04:04:39;8.02;;;4.97;;
53269;SDS011;39159;45.634;9.420;2023-07-29T04:07:06;11.18;;;5.53;;
53269;SDS011;39159;45.634;9.420;2023-07-29T04:09:32;9.05;;;5.00;;
53269;SDS011;39159;45.634;9.420;2023-07-29T04:11:58;10.95;;;5.68;;
53269;SDS011;39159;45.634;9.420;2023-07-29T04:14:23;9.52;;;5.18;;
53269;SDS011;39159;45.634;9.420;2023-07-29T04:16:48;8.45;;;5.13;;
53269;SDS011;39159;45.634;9.420;2023-07-29T04:19:14;9.88;;;5.28;;
53269;SDS011;39159;45.634;9.420;2023-07-29T04:21:39;12.43;;;5.30;;
53269;SDS011;39159;45.634;9.420;2023-07-29T04:24:05;7.40;;;5.00;;
53269;SDS011;39159;45.634;9.420;2023-07-29T04:26:30;12.40;;;4.72;;
53269;SDS011;39159;45.634;9.420;2023-07-29T04:28:56;7.85;;;5.38;;
53269;SDS011;39159;45.634;9.420;2023-07-29T04:31:21;8.23;;;5.43;;
53269;SDS011;39159;45.634;9.420;2023-07-29T04:33:46;6.55;;;5.00;;
53269;SDS011;39159;45.634;9.420;2023-07-29T04:36:12;9.30;;;4.75;;
53269;SDS011;39159;45.634;9.420;2023-07-29T04:38:37;6.80;;;4.22;;
53269;SDS011;39159;45.634;9.420;2023-07-29T04:41:03;6.40;;;4.63;;
53269;SDS011;39159;45.634;9.420;2023-07-29T04:43:32;8.43;;;4.53;;
53269;SDS011;39159;45.634;9.420;2023-07-29T04:45:57;8.15;;;4.65;;
53269;SDS011;39159;45.634;9.420;2023-07-29T04:48:23;7.93;;;3.88;;
53269;SDS011;39159;45.634;9.420;2023-07-29T04:50:48;5.85;;;4.15;;
53269;SDS011;39159;45.634;9.420;2023-07-29T04:53:14;8.57;;;4.13;;
53269;SDS011;39159;45.634;9.420;2023-07-29T04:55:41;6.65;;;4.28;;
53269;SDS011;39159;45.634;9.420;2023-07-29T04:58:07;8.02;;;4.65;;
53269;SDS011;39159;45.634;9.420;2023-07-29T05:00:33;8.48;;;4.60;;
53269;SDS011;39159;45.634;9.420;2023-07-29T05:02:58;6.93;;;4.20;;
53269;SDS011;39159;45.634;9.420;2023-07-29T05:05:24;6.85;;;4.40;;
53269;SDS011;39159;45.634;9.420;2023-07-29T05:07:49;7.18;;;4.35;;
53269;SDS011;39159;45.634;9.420;2023-07-29T05:10:15;7.28;;;4.47;;
53269;SDS011;39159;45.634;9.420;2023-07-29T05:12:40;6.68;;;4.60;;
53269;SDS011;39159;45.634;9.420;2023-07-29T05:15:06;7.63;;;4.40;;
53269;SDS011;39159;45.634;9.420;2023-07-29T05:17:32;9.60;;;4.88;;
53269;SDS011;39159;45.634;9.420;2023-07-29T05:19:57;7.65;;;4.45;;
53269;SDS011;39159;45.634;9.420;2023-07-29T05:22:23;7.05;;;4.30;;
53269;SDS011;39159;45.634;9.420;2023-07-29T05:24:48;12.65;;;4.50;;
53269;SDS011;39159;45.634;9.420;2023-07-29T05:27:14;10.02;;;4.93;;
53269;SDS011;39159;45.634;9.420;2023-07-29T05:29:39;7.95;;;4.22;;
53269;SDS011;39159;45.634;9.420;2023-07-29T05:32:05;6.47;;;4.32;;
53269;SDS011;39159;45.634;9.420;2023-07-29T05:34:30;10.10;;;4.65;;
53269;SDS011;39159;45.634;9.420;2023-07-29T05:36:56;7.15;;;4.82;;
53269;SDS011;39159;45.634;9.420;2023-07-29T05:39:21;6.75;;;4.38;;
53269;SDS011;39159;45.634;9.420;2023-07-29T05:41:46;6.78;;;4.38;;
53269;SDS011;39159;45.634;9.420;2023-07-29T05:44:12;15.15;;;5.40;;
53269;SDS011;39159;45.634;9.420;2023-07-29T05:46:37;9.18;;;4.60;;
53269;SDS011;39159;45.634;9.420;2023-07-29T05:49:03;5.68;;;4.18;;
53269;SDS011;39159;45.634;9.420;2023-07-29T05:51:28;6.65;;;4.70;;
53269;SDS011;39159;45.634;9.420;2023-07-29T05:53:54;11.52;;;5.15;;
53269;SDS011;39159;45.634;9.420;2023-07-29T05:56:19;9.82;;;4.45;;
53269;SDS011;39159;45.634;9.420;2023-07-29T05:58:45;5.07;;;3.85;;
53269;SDS011;39159;45.634;9.420;2023-07-29T06:01:11;6.75;;;4.45;;
53269;SDS011;39159;45.634;9.420;2023-07-29T06:03:37;6.68;;;4.20;;
53269;SDS011;39159;45.634;9.420;2023-07-29T06:06:02;8.00;;;4.80;;
53269;SDS011;39159;45.634;9.420;2023-07-29T06:08:28;7.50;;;4.43;;
53269;SDS011;39159;45.634;9.420;2023-07-29T06:10:54;8.48;;;4.18;;
53269;SDS011;39159;45.634;9.420;2023-07-29T06:13:19;6.95;;;4.05;;
53269;SDS011;39159;45.634;9.420;2023-07-29T06:15:45;6.72;;;4.15;;
53269;SDS011;39159;45.634;9.420;2023-07-29T06:18:10;7.97;;;4.07;;
53269;SDS011;39159;45.634;9.420;2023-07-29T06:20:35;7.43;;;4.50;;
53269;SDS011;39159;45.634;9.420;2023-07-29T06:23:01;7.47;;;4.80;;
53269;SDS011;39159;45.634;9.420;2023-07-29T06:25:27;6.57;;;4.35;;
53269;SDS011;39159;45.634;9.420;2023-07-29T06:27:52;8.80;;;4.13;;
53269;SDS011;39159;45.634;9.420;2023-07-29T06:30:18;8.77;;;4.45;;
53269;SDS011;39159;45.634;9.420;2023-07-29T06:32:43;6.55;;;3.65;;
53269;SDS011;39159;45.634;9.420;2023-07-29T06:35:08;8.55;;;4.10;;
53269;SDS011;39159;45.634;9.420;2023-07-29T06:37:34;7.63;;;3.70;;
53269;SDS011;39159;45.634;9.420;2023-07-29T06:39:59;8.00;;;3.90;;
53269;SDS011;39159;45.634;9.420;2023-07-29T06:42:25;5.53;;;3.60;;
53269;SDS011;39159;45.634;9.420;2023-07-29T06:44:50;11.13;;;4.03;;
53269;SDS011;39159;45.634;9.420;2023-07-29T06:47:16;5.38;;;3.50;;
53269;SDS011;39159;45.634;9.420;2023-07-29T06:49:41;7.25;;;4.35;;
53269;SDS011;39159;45.634;9.420;2023-07-29T06:52:07;9.35;;;3.63;;
53269;SDS011;39159;45.634;9.420;2023-07-29T06:54:32;6.32;;;3.05;;
53269;SDS011;39159;45.634;9.420;2023-07-29T06:56:58;6.90;;;3.65;;
53269;SDS011;39159;45.634;9.420;2023-07-29T06:59:24;4.20;;;3.22;;
53269;SDS011;39159;45.634;9.420;2023-07-29T07:01:50;5.35;;;3.03;;
53269;SDS011;39159;45.634;9.420;2023-07-29T07:04:16;12.05;;;3.92;;
53269;SDS011;39159;45.634;9.420;2023-07-29T07:06:41;7.32;;;3.80;;
53269;SDS011;39159;45.634;9.420;2023-07-29T07:09:07;6.90;;;3.50;;
53269;SDS011;39159;45.634;9.420;2023-07-29T07:11:32;7.18;;;4.18;;
53269;SDS011;39159;45.634;9.420;2023-07-29T07:13:57;4.50;;;3.08;;
53269;SDS011;39159;45.634;9.420;2023-07-29T07:16:23;7.40;;;3.10;;
53269;SDS011;39159;45.634;9.420;2023-07-29T07:18:48;5.60;;;3.42;;
53269;SDS011;39159;45.634;9.420;2023-07-29T07:21:14;4.50;;;2.88;;
53269;SDS011;39159;45.634;9.420;2023-07-29T07:23:39;7.53;;;3.65;;
53269;SDS011;39159;45.634;9.420;2023-07-29T07:26:05;8.73;;;3.85;;
53269;SDS011;39159;45.634;9.420;2023-07-29T07:28:30;5.90;;;3.15;;
53269;SDS011;39159;45.634;9.420;2023-07-29T07:30:55;8.43;;;3.70;;
53269;SDS011;39159;45.634;9.420;2023-07-29T07:33:21;8.20;;;3.50;;
53269;SDS011;39159;45.634;9.420;2023-07-29T07:35:47;5.25;;;2.85;;
53269;SDS011;39159;45.634;9.420;2023-07-29T07:38:12;6.80;;;3.17;;
53269;SDS011;39159;45.634;9.420;2023-07-29T07:40:38;4.20;;;2.65;;
53269;SDS011;39159;45.634;9.420;2023-07-29T07:43:03;6.05;;;2.70;;
53269;SDS011;39159;45.634;9.420;2023-07-29T07:45:29;4.93;;;2.60;;
53269;SDS011;39159;45.634;9.420;2023-07-29T07:47:54;7.05;;;3.22;;
53269;SDS011;39159;45.634;9.420;2023-07-29T07:50:21;8.52;;;3.58;;
53269;SDS011;39159;45.634;9.420;2023-07-29T07:52:46;6.85;;;3.13;;
53269;SDS011;39159;45.634;9.420;2023-07-29T07:55:12;8.70;;;3.10;;
53269;SDS011;39159;45.634;9.420;2023-07-29T07:57:37;5.75;;;3.25;;
53269;SDS011;39159;45.634;9.420;2023-07-29T08:00:03;6.13;;;3.10;;
53269;SDS011;39159;45.634;9.420;2023-07-29T08:02:29;5.50;;;2.70;;
53269;SDS011;39159;45.634;9.420;2023-07-29T08:04:55;11.63;;;4.20;;
53269;SDS011;39159;45.634;9.420;2023-07-29T08:07:20;8.05;;;3.88;;
53269;SDS011;39159;45.634;9.420;2023-07-29T08:09:46;6.43;;;3.35;;
53269;SDS011;39159;45.634;9.420;2023-07-29T08:12:11;6.10;;;3.25;;
53269;SDS011;39159;45.634;9.420;2023-07-29T08:14:36;9.00;;;4.03;;
53269;SDS011;39159;45.634;9.420;2023-07-29T08:17:02;6.10;;;3.10;;
53269;SDS011;39159;45.634;9.420;2023-07-29T08:19:28;8.23;;;3.97;;
53269;SDS011;39159;45.634;9.420;2023-07-29T08:21:53;6.65;;;3.50;;
53269;SDS011;39159;45.634;9.420;2023-07-29T08:24:18;5.63;;;3.38;;
53269;SDS011;39159;45.634;9.420;2023-07-29T08:26:44;8.10;;;3.90;;
53269;SDS011;39159;45.634;9.420;2023-07-29T08:29:10;5.30;;;3.30;;
53269;SDS011;39159;45.634;9.420;2023-07-29T08:31:35;5.68;;;3.10;;
53269;SDS011;39159;45.634;9.420;2023-07-29T08:34:01;5.18;;;3.08;;
53269;SDS011;39159;45.634;9.420;2023-07-29T08:36:26;6.75;;;3.28;;
53269;SDS011;39159;45.634;9.420;2023-07-29T08:38:52;7.57;;;3.85;;
53269;SDS011;39159;45.634;9.420;2023-07-29T08:41:29;6.80;;;3.58;;
53269;SDS011;39159;45.634;9.420;2023-07-29T08:46:51;6.75;;;4.03;;
53269;SDS011;39159;45.634;9.420;2023-07-29T08:49:18;5.93;;;3.50;;
53269;SDS011;39159;45.634;9.420;2023-07-29T08:51:48;5.93;;;3.67;;
53269;SDS011;39159;45.634;9.420;2023-07-29T08:54:14;5.72;;;3.65;;
53269;SDS011;39159;45.634;9.420;2023-07-29T08:56:40;11.95;;;4.00;;
53269;SDS011;39159;45.634;9.420;2023-07-29T08:59:07;5.65;;;3.92;;
53269;SDS011;39159;45.634;9.420;2023-07-29T09:01:33;9.38;;;4.85;;
53269;SDS011;39159;45.634;9.420;2023-07-29T09:03:59;7.90;;;3.60;;
53269;SDS011;39159;45.634;9.420;2023-07-29T09:06:25;7.88;;;3.70;;
53269;SDS011;39159;45.634;9.420;2023-07-29T09:08:53;5.13;;;3.42;;
53269;SDS011;39159;45.634;9.420;2023-07-29T09:11:21;6.72;;;4.18;;
53269;SDS011;39159;45.634;9.420;2023-07-29T09:13:47;5.53;;;3.63;;
53269;SDS011;39159;45.634;9.420;2023-07-29T09:16:13;4.85;;;2.90;;
53269;SDS011;39159;45.634;9.420;2023-07-29T09:18:39;5.50;;;3.85;;
53269;SDS011;39159;45.634;9.420;2023-07-29T09:21:04;7.05;;;3.28;;
53269;SDS011;39159;45.634;9.420;2023-07-29T09:23:49;11.40;;;3.80;;
53269;SDS011;39159;45.634;9.420;2023-07-29T09:26:21;6.60;;;2.88;;
53269;SDS011;39159;45.634;9.420;2023-07-29T09:28:51;5.53;;;3.20;;
53269;SDS011;39159;45.634;9.420;2023-07-29T09:31:21;13.20;;;3.95;;
53269;SDS011;39159;45.634;9.420;2023-07-29T09:33:47;7.30;;;3.38;;
53269;SDS011;39159;45.634;9.420;2023-07-29T09:36:13;7.25;;;3.20;;
53269;SDS011;39159;45.634;9.420;2023-07-29T09:38:38;5.18;;;3.33;;
53269;SDS011;39159;45.634;9.420;2023-07-29T09:41:04;5.05;;;3.28;;
53269;SDS011;39159;45.634;9.420;2023-07-29T09:43:30;8.77;;;3.13;;
53269;SDS011;39159;45.634;9.420;2023-07-29T09:46:01;7.78;;;3.00;;
53269;SDS011;39159;45.634;9.420;2023-07-29T09:48:28;6.97;;;3.53;;
53269;SDS011;39159;45.634;9.420;2023-07-29T09:50:57;6.40;;;2.88;;
53269;SDS011;39159;45.634;9.420;2023-07-29T09:53:22;8.63;;;3.53;;
53269;SDS011;39159;45.634;9.420;2023-07-29T09:55:49;5.53;;;3.10;;
53269;SDS011;39159;45.634;9.420;2023-07-29T09:58:18;7.88;;;4.78;;
53269;SDS011;39159;45.634;9.420;2023-07-29T10:00:50;7.38;;;3.50;;
53269;SDS011;39159;45.634;9.420;2023-07-29T10:03:16;7.68;;;3.05;;
53269;SDS011;39159;45.634;9.420;2023-07-29T10:05:43;4.93;;;2.95;;
53269;SDS011;39159;45.634;9.420;2023-07-29T10:08:10;10.27;;;5.82;;
53269;SDS011;39159;45.634;9.420;2023-07-29T10:10:36;7.25;;;2.70;;
53269;SDS011;39159;45.634;9.420;2023-07-29T10:13:02;6.35;;;3.13;;
53269;SDS011;39159;45.634;9.420;2023-07-29T10:15:28;4.55;;;2.40;;
53269;SDS011;39159;45.634;9.420;2023-07-29T10:17:54;5.65;;;2.80;;
53269;SDS011;39159;45.634;9.420;2023-07-29T10:20:20;5.47;;;2.75;;
53269;SDS011;39159;45.634;9.420;2023-07-29T10:22:46;5.60;;;2.67;;
53269;SDS011;39159;45.634;9.420;2023-07-29T10:25:15;4.35;;;2.38;;
53269;SDS011;39159;45.634;9.420;2023-07-29T10:30:08;5.05;;;2.85;;
53269;SDS011;39159;45.634;9.420;2023-07-29T10:32:36;5.72;;;2.92;;
53269;SDS011;39159;45.634;9.420;2023-07-29T10:35:03;8.20;;;3.08;;
53269;SDS011;39159;45.634;9.420;2023-07-29T10:37:29;3.15;;;2.20;;
53269;SDS011;39159;45.634;9.420;2023-07-29T10:39:54;4.03;;;2.83;;
53269;SDS011;39159;45.634;9.420;2023-07-29T10:42:21;3.75;;;2.25;;
53269;SDS011;39159;45.634;9.420;2023-07-29T10:44:49;5.57;;;2.40;;
53269;SDS011;39159;45.634;9.420;2023-07-29T10:49:56;6.63;;;3.38;;
53269;SDS011;39159;45.634;9.420;2023-07-29T10:52:29;3.97;;;2.65;;
53269;SDS011;39159;45.634;9.420;2023-07-29T10:55:23;4.70;;;2.80;;
53269;SDS011;39159;45.634;9.420;2023-07-29T11:00:39;5.05;;;2.80;;
53269;SDS011;39159;45.634;9.420;2023-07-29T11:03:06;9.57;;;3.22;;
53269;SDS011;39159;45.634;9.420;2023-07-29T11:05:49;13.38;;;3.50;;
53269;SDS011;39159;45.634;9.420;2023-07-29T11:08:16;4.43;;;2.92;;
53269;SDS011;39159;45.634;9.420;2023-07-29T11:11:12;5.45;;;3.13;;
53269;SDS011;39159;45.634;9.420;2023-07-29T11:13:38;6.13;;;3.25;;
53269;SDS011;39159;45.634;9.420;2023-07-29T11:16:04;6.13;;;3.20;;
53269;SDS011;39159;45.634;9.420;2023-07-29T11:18:31;4.57;;;2.75;;
53269;SDS011;39159;45.634;9.420;2023-07-29T11:21:02;3.47;;;2.78;;
53269;SDS011;39159;45.634;9.420;2023-07-29T11:23:32;9.75;;;3.85;;
53269;SDS011;39159;45.634;9.420;2023-07-29T11:28:26;4.13;;;2.65;;
53269;SDS011;39159;45.634;9.420;2023-07-29T11:30:53;24.67;;;3.25;;
53269;SDS011;39159;45.634;9.420;2023-07-29T11:33:20;7.20;;;2.90;;
53269;SDS011;39159;45.634;9.420;2023-07-29T11:35:47;6.40;;;2.78;;
53269;SDS011;39159;45.634;9.420;2023-07-29T11:38:16;8.77;;;3.08;;
53269;SDS011;39159;45.634;9.420;2023-07-29T11:40:43;4.53;;;2.72;;
53269;SDS011;39159;45.634;9.420;2023-07-29T11:43:18;8.23;;;2.83;;
53269;SDS011;39159;45.634;9.420;2023-07-29T11:45:44;6.18;;;2.53;;
53269;SDS011;39159;45.634;9.420;2023-07-29T11:48:09;5.57;;;2.83;;
53269;SDS011;39159;45.634;9.420;2023-07-29T11:50:35;10.73;;;3.45;;
53269;SDS011;39159;45.634;9.420;2023-07-29T11:53:00;9.07;;;3.70;;
53269;SDS011;39159;45.634;9.420;2023-07-29T11:55:26;4.07;;;3.00;;
53269;SDS011;39159;45.634;9.420;2023-07-29T11:57:51;5.50;;;2.85;;
53269;SDS011;39159;45.634;9.420;2023-07-29T12:00:17;5.63;;;3.35;;
53269;SDS011;39159;45.634;9.420;2023-07-29T12:02:43;7.32;;;3.10;;
53269;SDS011;39159;45.634;9.420;2023-07-29T12:05:10;6.82;;;3.38;;
53269;SDS011;39159;45.634;9.420;2023-07-29T12:07:40;7.25;;;3.20;;
53269;SDS011;39159;45.634;9.420;2023-07-29T12:10:07;4.37;;;2.80;;
53269;SDS011;39159;45.634;9.420;2023-07-29T12:12:38;4.88;;;3.03;;
53269;SDS011;39159;45.634;9.420;2023-07-29T12:15:25;5.53;;;2.53;;
53269;SDS011;39159;45.634;9.420;2023-07-29T12:17:55;5.68;;;3.10;;
53269;SDS011;39159;45.634;9.420;2023-07-29T12:20:21;5.32;;;2.95;;
53269;SDS011;39159;45.634;9.420;2023-07-29T12:22:57;5.50;;;2.85;;
53269;SDS011;39159;45.634;9.420;2023-07-29T12:25:24;6.25;;;3.17;;
53269;SDS011;39159;45.634;9.420;2023-07-29T12:27:51;7.85;;;3.22;;
53269;SDS011;39159;45.634;9.420;2023-07-29T12:30:19;8.77;;;3.58;;
53269;SDS011;39159;45.634;9.420;2023-07-29T12:32:46;5.40;;;2.60;;
53269;SDS011;39159;45.634;9.420;2023-07-29T12:35:12;4.85;;;2.65;;
53269;SDS011;39159;45.634;9.420;2023-07-29T12:37:38;5.22;;;2.78;;
53269;SDS011;39159;45.634;9.420;2023-07-29T12:40:07;5.97;;;3.03;;
53269;SDS011;39159;45.634;9.420;2023-07-29T12:42:33;5.55;;;2.97;;
53269;SDS011;39159;45.634;9.420;2023-07-29T12:44:58;4.68;;;2.55;;
53269;SDS011;39159;45.634;9.420;2023-07-29T12:47:24;6.68;;;3.17;;
53269;SDS011;39159;45.634;9.420;2023-07-29T12:49:49;8.05;;;3.20;;
53269;SDS011;39159;45.634;9.420;2023-07-29T12:52:15;5.70;;;2.97;;
53269;SDS011;39159;45.634;9.420;2023-07-29T12:54:41;6.22;;;3.15;;
53269;SDS011;39159;45.634;9.420;2023-07-29T12:57:09;6.65;;;2.85;;
53269;SDS011;39159;45.634;9.420;2023-07-29T12:59:34;9.18;;;3.03;;
53269;SDS011;39159;45.634;9.420;2023-07-29T13:02:00;6.10;;;2.85;;
53269;SDS011;39159;45.634;9.420;2023-07-29T13:04:25;5.45;;;3.42;;
53269;SDS011;39159;45.634;9.420;2023-07-29T13:06:51;5.53;;;3.10;;
53269;SDS011;39159;45.634;9.420;2023-07-29T13:09:16;9.77;;;3.40;;
53269;SDS011;39159;45.634;9.420;2023-07-29T13:11:42;7.85;;;3.50;;
53269;SDS011;39159;45.634;9.420;2023-07-29T13:14:07;7.57;;;3.38;;
53269;SDS011;39159;45.634;9.420;2023-07-29T13:16:32;6.80;;;3.20;;
53269;SDS011;39159;45.634;9.420;2023-07-29T13:18:58;5.47;;;3.22;;
53269;SDS011;39159;45.634;9.420;2023-07-29T13:21:23;7.85;;;3.13;;
53269;SDS011;39159;45.634;9.420;2023-07-29T13:23:49;5.90;;;3.10;;
53269;SDS011;39159;45.634;9.420;2023-07-29T13:26:14;8.63;;;3.53;;
53269;SDS011;39159;45.634;9.420;2023-07-29T13:28:40;8.57;;;3.03;;
53269;SDS011;39159;45.634;9.420;2023-07-29T13:31:05;6.13;;;3.10;;
53269;SDS011;39159;45.634;9.420;2023-07-29T13:33:31;5.05;;;2.60;;
53269;SDS011;39159;45.634;9.420;2023-07-29T13:35:59;6.13;;;3.75;;
53269;SDS011;39159;45.634;9.420;2023-07-29T13:38:28;6.75;;;2.85;;
53269;SDS011;39159;45.634;9.420;2023-07-29T13:40:54;6.35;;;3.00;;
53269;SDS011;39159;45.634;9.420;2023-07-29T13:43:19;5.75;;;3.00;;
53269;SDS011;39159;45.634;9.420;2023-07-29T13:45:45;5.35;;;3.13;;
53269;SDS011;39159;45.634;9.420;2023-07-29T13:48:13;4.53;;;3.13;;
53269;SDS011;39159;45.634;9.420;2023-07-29T13:50:39;5.78;;;3.17;;
53269;SDS011;39159;45.634;9.420;2023-07-29T13:53:04;7.80;;;3.08;;
53269;SDS011;39159;45.634;9.420;2023-07-29T13:55:30;7.07;;;3.35;;
53269;SDS011;39159;45.634;9.420;2023-07-29T13:57:55;6.47;;;3.22;;
53269;SDS011;39159;45.634;9.420;2023-07-29T14:00:21;5.10;;;3.00;;
53269;SDS011;39159;45.634;9.420;2023-07-29T14:02:46;4.25;;;3.30;;
53269;SDS011;39159;45.634;9.420;2023-07-29T14:05:11;4.03;;;2.80;;
53269;SDS011;39159;45.634;9.420;2023-07-29T14:07:37;4.78;;;2.85;;
53269;SDS011;39159;45.634;9.420;2023-07-29T14:10:03;5.88;;;3.20;;
53269;SDS011;39159;45.634;9.420;2023-07-29T14:12:28;8.23;;;3.50;;
53269;SDS011;39159;45.634;9.420;2023-07-29T14:14:54;6.82;;;3.10;;
53269;SDS011;39159;45.634;9.420;2023-07-29T14:17:19;4.78;;;2.80;;
53269;SDS011;39159;45.634;9.420;2023-07-29T14:19:46;5.40;;;3.05;;
53269;SDS011;39159;45.634;9.420;2023-07-29T14:22:11;5.65;;;2.60;;
53269;SDS011;39159;45.634;9.420;2023-07-29T14:24:37;4.35;;;2.47;;
53269;SDS011;39159;45.634;9.420;2023-07-29T14:27:02;6.00;;;3.20;;
53269;SDS011;39159;45.634;9.420;2023-07-29T14:29:28;3.78;;;2.85;;
53269;SDS011;39159;45.634;9.420;2023-07-29T14:31:53;3.95;;;2.95;;
53269;SDS011;39159;45.634;9.420;2023-07-29T14:34:19;5.07;;;3.10;;
53269;SDS011;39159;45.634;9.420;2023-07-29T14:36:44;8.18;;;3.08;;
53269;SDS011;39159;45.634;9.420;2023-07-29T14:39:10;6.20;;;3.05;;
53269;SDS011;39159;45.634;9.420;2023-07-29T14:41:36;6.68;;;3.10;;
53269;SDS011;39159;45.634;9.420;2023-07-29T14:44:01;6.13;;;3.03;;
53269;SDS011;39159;45.634;9.420;2023-07-29T14:46:27;5.68;;;3.00;;
53269;SDS011;39159;45.634;9.420;2023-07-29T14:48:52;6.22;;;3.25;;
53269;SDS011;39159;45.634;9.420;2023-07-29T14:51:18;3.65;;;2.75;;
53269;SDS011;39159;45.634;9.420;2023-07-29T14:53:44;4.72;;;2.60;;
53269;SDS011;39159;45.634;9.420;2023-07-29T14:56:09;4.75;;;2.83;;
53269;SDS011;39159;45.634;9.420;2023-07-29T14:58:35;6.68;;;2.90;;